Date,TemperatureHighF,TemperatureAvgF,TemperatureLowF,DewpointHighF,DewpointAvgF,DewpointLowF,HumidityHigh,HumidityAvg,HumidityLow,PressureMaxIn,PressureMinIn,WindSpeedMaxMPH,WindSpeedAvgMPH,GustSpeedMaxMPH,PrecipitationSumIn
2013-2-1,66,52,43,54,48,42,99,87,57,30.28,29.62,7,3,13,0.00
2013-2-2,56,50,44,49,40,27,98,71,34,29.81,29.49,18,5,28,0.12
2013-2-3,54,48,39,27,9,-2,60,25,10,30.24,29.82,24,13,47,0.00
2013-2-4,58,44,33,40,29,18,80,58,33,30.27,30.19,6,3,10,0.00
2013-2-5,62,49,38,50,42,34,94,80,62,30.22,29.82,12,4,19,0.00
2013-2-6,54,46,37,43,38,31,95,75,51,29.84,29.66,7,3,15,0.00
2013-2-7,48,42,35,31,24,19,79,50,32,30.00,29.74,24,9,44,0.00
2013-2-8,46,40,34,36,29,23,74,64,47,30.00,29.87,14,3,24,0.00
2013-2-9,50,42,34,34,27,22,76,58,38,30.09,29.99,10,4,17,0.00
2013-2-10,55,46,36,42,36,32,86,70,53,30.02,29.54,16,4,30,0.00
2013-2-11,52,46,42,41,39,37,86,75,58,29.58,29.46,6,2,11,0.00
2013-2-12,57,46,38,38,34,26,87,63,33,29.89,29.53,10,4,17,0.00
2013-2-13,56,44,33,40,35,30,90,74,49,30.09,29.89,9,3,15,0.00
2013-2-14,59,48,37,47,41,33,89,76,56,30.14,30.07,7,3,16,0.00
2013-2-15,57,48,39,46,41,37,96,78,56,30.13,30.03,7,2,15,0.00
2013-2-16,56,50,43,47,42,39,87,77,59,30.14,30.05,9,3,14,0.00
2013-2-17,54,50,48,48,45,42,90,82,73,30.06,29.89,7,2,12,0.00
2013-2-18,53,50,48,50,48,47,99,92,82,30.00,29.84,6,2,12,0.05
2013-2-19,55,49,40,49,45,38,99,87,72,30.00,29.89,10,3,20,0.00
2013-2-20,59,46,35,48,40,33,98,84,57,29.91,29.80,7,3,11,0.00
2013-2-21,56,47,38,48,43,37,99,88,72,29.84,29.63,9,3,15,0.18
2013-2-22,48,42,39,47,40,37,98,93,86,29.63,29.55,4,2,11,0.14
2013-2-23,46,38,31,38,29,21,89,70,45,29.78,29.46,11,4,20,0.00
2013-2-24,43,34,26,29,25,21,84,69,49,29.94,29.78,5,2,10,0.00
2013-2-25,48,38,31,32,28,24,86,69,42,30.08,29.92,9,3,17,0.00
2013-2-26,50,38,29,35,30,26,92,74,43,30.14,30.07,6,2,14,0.00
2013-2-27,51,42,32,41,34,28,90,73,62,30.18,30.11,9,4,20,0.01
2013-2-28,49,44,39,46,42,38,98,91,83,30.15,29.99,13,5,21,0.37